sensor_id;sensor_type;location;lat;lon;timestamp;P1;durP1;ratioP1;P2;durP2;ratioP2
57217;SDS011;43078;52.972;6.482;2022-11-20T00:02:20;20.40;;;12.80;;
57217;SDS011;43078;52.972;6.482;2022-11-20T00:04:45;20.75;;;12.95;;
57217;SDS011;43078;52.972;6.482;2022-11-20T00:07:11;20.10;;;12.95;;
57217;SDS011;43078;52.972;6.482;2022-11-20T00:09:36;21.33;;;12.52;;
57217;SDS011;43078;52.972;6.482;2022-11-20T00:12:02;20.92;;;12.95;;
57217;SDS011;43078;52.972;6.482;2022-11-20T00:14:28;21.15;;;12.30;;
57217;SDS011;43078;52.972;6.482;2022-11-20T00:16:53;20.50;;;13.30;;
57217;SDS011;43078;52.972;6.482;2022-11-20T00:19:19;17.80;;;11.73;;
57217;SDS011;43078;52.972;6.482;2022-11-20T00:21:45;20.67;;;12.30;;
57217;SDS011;43078;52.972;6.482;2022-11-20T00:24:10;17.50;;;12.43;;
57217;SDS011;43078;52.972;6.482;2022-11-20T00:26:36;20.13;;;11.40;;
57217;SDS011;43078;52.972;6.482;2022-11-20T00:29:02;16.33;;;11.00;;
57217;SDS011;43078;52.972;6.482;2022-11-20T00:31:28;18.63;;;11.38;;
57217;SDS011;43078;52.972;6.482;2022-11-20T00:33:54;17.25;;;10.60;;
57217;SDS011;43078;52.972;6.482;2022-11-20T00:36:22;17.15;;;11.10;;
57217;SDS011;43078;52.972;6.482;2022-11-20T00:38:52;17.67;;;11.13;;
57217;SDS011;43078;52.972;6.482;2022-11-20T00:41:18;17.15;;;11.20;;
57217;SDS011;43078;52.972;6.482;2022-11-20T00:43:44;16.88;;;10.27;;
57217;SDS011;43078;52.972;6.482;2022-11-20T00:46:12;16.45;;;10.48;;
57217;SDS011;43078;52.972;6.482;2022-11-20T00:48:43;18.52;;;10.75;;
57217;SDS011;43078;52.972;6.482;2022-11-20T00:51:09;16.77;;;10.35;;
57217;SDS011;43078;52.972;6.482;2022-11-20T00:53:36;14.55;;;9.93;;
57217;SDS011;43078;52.972;6.482;2022-11-20T00:56:03;15.25;;;10.27;;
57217;SDS011;43078;52.972;6.482;2022-11-20T00:58:32;15.30;;;9.95;;
57217;SDS011;43078;52.972;6.482;2022-11-20T01:01:06;15.65;;;9.93;;
57217;SDS011;43078;52.972;6.482;2022-11-20T01:03:38;14.18;;;9.55;;
57217;SDS011;43078;52.972;6.482;2022-11-20T01:06:07;13.75;;;9.55;;
57217;SDS011;43078;52.972;6.482;2022-11-20T01:08:35;15.27;;;9.77;;
57217;SDS011;43078;52.972;6.482;2022-11-20T01:11:02;14.73;;;10.07;;
57217;SDS011;43078;52.972;6.482;2022-11-20T01:13:30;15.43;;;9.95;;
57217;SDS011;43078;52.972;6.482;2022-11-20T01:16:12;13.90;;;9.15;;
57217;SDS011;43078;52.972;6.482;2022-11-20T01:18:39;14.77;;;9.45;;
57217;SDS011;43078;52.972;6.482;2022-11-20T01:21:06;14.43;;;9.55;;
57217;SDS011;43078;52.972;6.482;2022-11-20T01:23:34;14.50;;;9.32;;
57217;SDS011;43078;52.972;6.482;2022-11-20T01:26:03;15.65;;;9.98;;
57217;SDS011;43078;52.972;6.482;2022-11-20T01:28:30;13.77;;;9.25;;
57217;SDS011;43078;52.972;6.482;2022-11-20T01:30:56;14.48;;;8.68;;
57217;SDS011;43078;52.972;6.482;2022-11-20T01:33:21;13.65;;;9.07;;
57217;SDS011;43078;52.972;6.482;2022-11-20T01:35:47;14.27;;;9.45;;
57217;SDS011;43078;52.972;6.482;2022-11-20T01:38:14;15.70;;;9.90;;
57217;SDS011;43078;52.972;6.482;2022-11-20T01:40:40;14.93;;;9.18;;
57217;SDS011;43078;52.972;6.482;2022-11-20T01:43:18;14.13;;;9.07;;
57217;SDS011;43078;52.972;6.482;2022-11-20T01:53:41;16.15;;;9.10;;
57217;SDS011;43078;52.972;6.482;2022-11-20T01:56:09;13.63;;;9.23;;
57217;SDS011;43078;52.972;6.482;2022-11-20T01:58:37;18.27;;;9.13;;
57217;SDS011;43078;52.972;6.482;2022-11-20T02:01:08;15.13;;;9.50;;
57217;SDS011;43078;52.972;6.482;2022-11-20T02:03:34;13.55;;;9.30;;
57217;SDS011;43078;52.972;6.482;2022-11-20T02:06:22;13.57;;;9.02;;
57217;SDS011;43078;52.972;6.482;2022-11-20T02:08:53;14.93;;;9.13;;
57217;SDS011;43078;52.972;6.482;2022-11-20T02:11:19;13.35;;;8.70;;
57217;SDS011;43078;52.972;6.482;2022-11-20T02:13:45;13.45;;;8.02;;
57217;SDS011;43078;52.972;6.482;2022-11-20T02:16:25;13.50;;;9.02;;
57217;SDS011;43078;52.972;6.482;2022-11-20T02:18:54;12.70;;;8.98;;
57217;SDS011;43078;52.972;6.482;2022-11-20T02:21:27;14.45;;;8.85;;
57217;SDS011;43078;52.972;6.482;2022-11-20T02:24:04;14.77;;;8.75;;
57217;SDS011;43078;52.972;6.482;2022-11-20T02:32:22;13.38;;;7.95;;
57217;SDS011;43078;52.972;6.482;2022-11-20T02:34:56;13.13;;;8.73;;
57217;SDS011;43078;52.972;6.482;2022-11-20T02:37:23;12.57;;;8.82;;
57217;SDS011;43078;52.972;6.482;2022-11-20T02:39:57;13.65;;;8.75;;
57217;SDS011;43078;52.972;6.482;2022-11-20T02:42:23;13.15;;;8.50;;
57217;SDS011;43078;52.972;6.482;2022-11-20T02:44:48;12.20;;;8.27;;
57217;SDS011;43078;52.972;6.482;2022-11-20T02:47:14;14.43;;;8.45;;
57217;SDS011;43078;52.972;6.482;2022-11-20T02:49:39;13.43;;;9.10;;
57217;SDS011;43078;52.972;6.482;2022-11-20T02:52:05;13.32;;;7.97;;
57217;SDS011;43078;52.972;6.482;2022-11-20T02:54:30;13.52;;;8.98;;
57217;SDS011;43078;52.972;6.482;2022-11-20T02:56:56;13.00;;;8.55;;
57217;SDS011;43078;52.972;6.482;2022-11-20T02:59:22;12.40;;;8.35;;
57217;SDS011;43078;52.972;6.482;2022-11-20T03:01:47;13.05;;;7.75;;
57217;SDS011;43078;52.972;6.482;2022-11-20T03:04:13;13.05;;;8.60;;
57217;SDS011;43078;52.972;6.482;2022-11-20T03:06:39;12.45;;;8.23;;
57217;SDS011;43078;52.972;6.482;2022-11-20T03:09:04;13.13;;;8.73;;
57217;SDS011;43078;52.972;6.482;2022-11-20T03:11:30;12.13;;;8.27;;
57217;SDS011;43078;52.972;6.482;2022-11-20T03:13:55;13.75;;;8.60;;
57217;SDS011;43078;52.972;6.482;2022-11-20T03:16:22;12.30;;;8.00;;
57217;SDS011;43078;52.972;6.482;2022-11-20T03:18:48;12.10;;;8.55;;
57217;SDS011;43078;52.972;6.482;2022-11-20T03:21:14;11.82;;;8.38;;
57217;SDS011;43078;52.972;6.482;2022-11-20T03:23:41;14.43;;;8.50;;
57217;SDS011;43078;52.972;6.482;2022-11-20T03:26:08;12.70;;;8.48;;
57217;SDS011;43078;52.972;6.482;2022-11-20T03:28:33;14.60;;;8.75;;
57217;SDS011;43078;52.972;6.482;2022-11-20T03:31:04;12.93;;;9.05;;
57217;SDS011;43078;52.972;6.482;2022-11-20T03:33:30;12.98;;;8.50;;
57217;SDS011;43078;52.972;6.482;2022-11-20T03:36:00;12.88;;;8.40;;
57217;SDS011;43078;52.972;6.482;2022-11-20T03:38:28;12.68;;;8.48;;
57217;SDS011;43078;52.972;6.482;2022-11-20T03:41:06;12.60;;;8.50;;
57217;SDS011;43078;52.972;6.482;2022-11-20T03:43:36;13.13;;;8.30;;
57217;SDS011;43078;52.972;6.482;2022-11-20T03:46:02;13.98;;;8.35;;
57217;SDS011;43078;52.972;6.482;2022-11-20T03:48:29;12.13;;;8.50;;
57217;SDS011;43078;52.972;6.482;2022-11-20T03:51:14;12.23;;;7.93;;
57217;SDS011;43078;52.972;6.482;2022-11-20T03:53:41;12.40;;;8.48;;
57217;SDS011;43078;52.972;6.482;2022-11-20T03:56:08;13.57;;;8.85;;
57217;SDS011;43078;52.972;6.482;2022-11-20T03:58:35;12.07;;;8.57;;
57217;SDS011;43078;52.972;6.482;2022-11-20T04:01:09;11.93;;;8.23;;
57217;SDS011;43078;52.972;6.482;2022-11-20T04:03:39;12.32;;;8.30;;
57217;SDS011;43078;52.972;6.482;2022-11-20T04:06:10;13.13;;;8.57;;
57217;SDS011;43078;52.972;6.482;2022-11-20T04:08:41;13.27;;;8.80;;
57217;SDS011;43078;52.972;6.482;2022-11-20T04:11:08;12.48;;;8.38;;
57217;SDS011;43078;52.972;6.482;2022-11-20T04:13:50;13.73;;;8.88;;
57217;SDS011;43078;52.972;6.482;2022-11-20T04:16:18;12.60;;;8.68;;
57217;SDS011;43078;52.972;6.482;2022-11-20T04:18:44;12.65;;;8.90;;
57217;SDS011;43078;52.972;6.482;2022-11-20T04:21:10;13.13;;;9.02;;
57217;SDS011;43078;52.972;6.482;2022-11-20T04:23:36;13.60;;;8.57;;
57217;SDS011;43078;52.972;6.482;2022-11-20T04:26:03;12.60;;;9.10;;
57217;SDS011;43078;52.972;6.482;2022-11-20T04:28:30;12.18;;;8.57;;
57217;SDS011;43078;52.972;6.482;2022-11-20T04:31:03;13.63;;;8.45;;
57217;SDS011;43078;52.972;6.482;2022-11-20T04:33:29;12.48;;;8.50;;
57217;SDS011;43078;52.972;6.482;2022-11-20T04:35:55;14.00;;;8.75;;
57217;SDS011;43078;52.972;6.482;2022-11-20T04:38:24;12.95;;;8.75;;
57217;SDS011;43078;52.972;6.482;2022-11-20T04:40:50;12.75;;;9.30;;
57217;SDS011;43078;52.972;6.482;2022-11-20T04:43:15;12.75;;;8.40;;
57217;SDS011;43078;52.972;6.482;2022-11-20T04:45:41;12.38;;;8.32;;
57217;SDS011;43078;52.972;6.482;2022-11-20T04:48:06;12.68;;;8.27;;
57217;SDS011;43078;52.972;6.482;2022-11-20T04:50:32;13.50;;;8.85;;
57217;SDS011;43078;52.972;6.482;2022-11-20T04:52:58;13.30;;;9.13;;
57217;SDS011;43078;52.972;6.482;2022-11-20T04:55:23;12.88;;;8.60;;
57217;SDS011;43078;52.972;6.482;2022-11-20T04:57:50;15.93;;;9.32;;
57217;SDS011;43078;52.972;6.482;2022-11-20T05:00:16;13.55;;;9.05;;
57217;SDS011;43078;52.972;6.482;2022-11-20T05:02:42;13.18;;;8.73;;
57217;SDS011;43078;52.972;6.482;2022-11-20T05:05:08;14.45;;;9.57;;
57217;SDS011;43078;52.972;6.482;2022-11-20T05:07:33;13.65;;;9.02;;
57217;SDS011;43078;52.972;6.482;2022-11-20T05:09:59;13.75;;;8.98;;
57217;SDS011;43078;52.972;6.482;2022-11-20T05:12:24;15.23;;;9.65;;
57217;SDS011;43078;52.972;6.482;2022-11-20T05:14:50;13.95;;;9.52;;
57217;SDS011;43078;52.972;6.482;2022-11-20T05:17:15;11.95;;;8.82;;
57217;SDS011;43078;52.972;6.482;2022-11-20T05:19:41;12.30;;;8.45;;
57217;SDS011;43078;52.972;6.482;2022-11-20T05:22:07;13.93;;;9.05;;
57217;SDS011;43078;52.972;6.482;2022-11-20T05:24:32;14.98;;;9.45;;
57217;SDS011;43078;52.972;6.482;2022-11-20T05:26:58;13.13;;;9.10;;
57217;SDS011;43078;52.972;6.482;2022-11-20T05:29:23;13.13;;;9.23;;
57217;SDS011;43078;52.972;6.482;2022-11-20T05:31:49;12.43;;;8.43;;
57217;SDS011;43078;52.972;6.482;2022-11-20T05:34:14;13.77;;;9.32;;
57217;SDS011;43078;52.972;6.482;2022-11-20T05:36:40;13.77;;;9.25;;
57217;SDS011;43078;52.972;6.482;2022-11-20T05:39:06;13.70;;;9.25;;
57217;SDS011;43078;52.972;6.482;2022-11-20T05:41:32;13.52;;;9.05;;
57217;SDS011;43078;52.972;6.482;2022-11-20T05:43:58;13.13;;;9.05;;
57217;SDS011;43078;52.972;6.482;2022-11-20T05:46:24;14.57;;;8.95;;
57217;SDS011;43078;52.972;6.482;2022-11-20T05:48:49;13.65;;;8.95;;
57217;SDS011;43078;52.972;6.482;2022-11-20T05:51:16;14.48;;;9.90;;
57217;SDS011;43078;52.972;6.482;2022-11-20T05:53:43;12.02;;;8.98;;
57217;SDS011;43078;52.972;6.482;2022-11-20T05:56:10;14.32;;;9.25;;
57217;SDS011;43078;52.972;6.482;2022-11-20T05:58:37;13.55;;;9.15;;
57217;SDS011;43078;52.972;6.482;2022-11-20T06:01:22;12.40;;;8.85;;
57217;SDS011;43078;52.972;6.482;2022-11-20T06:03:49;12.07;;;8.80;;
57217;SDS011;43078;52.972;6.482;2022-11-20T06:06:16;11.75;;;8.45;;
57217;SDS011;43078;52.972;6.482;2022-11-20T06:08:43;11.90;;;8.43;;
57217;SDS011;43078;52.972;6.482;2022-11-20T06:11:09;12.52;;;8.48;;
57217;SDS011;43078;52.972;6.482;2022-11-20T06:13:36;12.60;;;8.73;;
57217;SDS011;43078;52.972;6.482;2022-11-20T06:16:02;13.00;;;8.68;;
57217;SDS011;43078;52.972;6.482;2022-11-20T06:18:29;13.05;;;8.77;;
57217;SDS011;43078;52.972;6.482;2022-11-20T06:21:14;12.90;;;8.50;;
57217;SDS011;43078;52.972;6.482;2022-11-20T06:23:42;13.68;;;8.50;;
57217;SDS011;43078;52.972;6.482;2022-11-20T06:26:11;12.85;;;8.50;;
57217;SDS011;43078;52.972;6.482;2022-11-20T06:28:38;12.75;;;8.68;;
57217;SDS011;43078;52.972;6.482;2022-11-20T06:31:04;12.27;;;8.32;;
57217;SDS011;43078;52.972;6.482;2022-11-20T06:33:31;12.52;;;8.45;;
57217;SDS011;43078;52.972;6.482;2022-11-20T06:35:58;12.82;;;8.85;;
57217;SDS011;43078;52.972;6.482;2022-11-20T06:38:25;12.68;;;8.73;;
57217;SDS011;43078;52.972;6.482;2022-11-20T06:40:51;13.35;;;8.43;;
57217;SDS011;43078;52.972;6.482;2022-11-20T06:43:17;11.75;;;8.80;;
57217;SDS011;43078;52.972;6.482;2022-11-20T06:45:42;12.57;;;8.18;;
57217;SDS011;43078;52.972;6.482;2022-11-20T06:48:08;12.80;;;8.10;;
57217;SDS011;43078;52.972;6.482;2022-11-20T06:50:35;13.45;;;9.00;;
57217;SDS011;43078;52.972;6.482;2022-11-20T06:53:02;13.65;;;8.55;;
57217;SDS011;43078;52.972;6.482;2022-11-20T06:55:28;12.05;;;8.02;;
57217;SDS011;43078;52.972;6.482;2022-11-20T06:57:54;12.85;;;8.32;;
57217;SDS011;43078;52.972;6.482;2022-11-20T07:00:20;12.48;;;8.55;;
57217;SDS011;43078;52.972;6.482;2022-11-20T07:02:45;12.52;;;9.05;;
57217;SDS011;43078;52.972;6.482;2022-11-20T07:05:11;12.02;;;8.40;;
57217;SDS011;43078;52.972;6.482;2022-11-20T07:07:36;17.25;;;8.40;;
57217;SDS011;43078;52.972;6.482;2022-11-20T07:10:02;11.43;;;7.93;;
57217;SDS011;43078;52.972;6.482;2022-11-20T07:12:28;11.55;;;8.25;;
57217;SDS011;43078;52.972;6.482;2022-11-20T07:14:53;11.18;;;7.80;;
57217;SDS011;43078;52.972;6.482;2022-11-20T07:17:19;15.10;;;8.05;;
57217;SDS011;43078;52.972;6.482;2022-11-20T07:19:45;11.27;;;8.13;;
57217;SDS011;43078;52.972;6.482;2022-11-20T07:22:10;12.10;;;8.32;;
57217;SDS011;43078;52.972;6.482;2022-11-20T07:24:36;11.48;;;7.97;;
57217;SDS011;43078;52.972;6.482;2022-11-20T07:27:04;11.25;;;7.93;;
57217;SDS011;43078;52.972;6.482;2022-11-20T07:29:29;10.55;;;7.68;;
57217;SDS011;43078;52.972;6.482;2022-11-20T07:31:55;11.40;;;7.97;;
57217;SDS011;43078;52.972;6.482;2022-11-20T07:34:21;11.63;;;7.72;;
57217;SDS011;43078;52.972;6.482;2022-11-20T07:36:47;12.45;;;8.25;;
57217;SDS011;43078;52.972;6.482;2022-11-20T07:39:12;11.02;;;7.82;;
57217;SDS011;43078;52.972;6.482;2022-11-20T07:41:38;11.80;;;7.63;;
57217;SDS011;43078;52.972;6.482;2022-11-20T07:44:04;12.30;;;8.02;;
57217;SDS011;43078;52.972;6.482;2022-11-20T07:46:30;10.85;;;7.53;;
57217;SDS011;43078;52.972;6.482;2022-11-20T07:48:55;12.07;;;8.20;;
57217;SDS011;43078;52.972;6.482;2022-11-20T07:51:21;11.57;;;7.90;;
57217;SDS011;43078;52.972;6.482;2022-11-20T07:53:47;12.25;;;7.43;;
57217;SDS011;43078;52.972;6.482;2022-11-20T07:56:12;11.40;;;7.65;;
57217;SDS011;43078;52.972;6.482;2022-11-20T07:58:39;11.60;;;7.70;;
57217;SDS011;43078;52.972;6.482;2022-11-20T08:01:06;12.13;;;7.97;;
57217;SDS011;43078;52.972;6.482;2022-11-20T08:03:32;12.27;;;7.55;;
57217;SDS011;43078;52.972;6.482;2022-11-20T08:05:59;11.43;;;7.75;;
57217;SDS011;43078;52.972;6.482;2022-11-20T08:08:28;11.02;;;7.43;;
57217;SDS011;43078;52.972;6.482;2022-11-20T08:10:53;10.10;;;7.40;;
57217;SDS011;43078;52.972;6.482;2022-11-20T08:13:41;11.38;;;7.38;;
57217;SDS011;43078;52.972;6.482;2022-11-20T08:16:25;12.85;;;8.30;;
57217;SDS011;43078;52.972;6.482;2022-11-20T08:18:50;12.13;;;8.20;;
57217;SDS011;43078;52.972;6.482;2022-11-20T08:21:16;44.33;;;20.80;;
57217;SDS011;43078;52.972;6.482;2022-11-20T08:23:41;16.55;;;10.38;;
57217;SDS011;43078;52.972;6.482;2022-11-20T08:26:07;21.88;;;12.43;;
57217;SDS011;43078;52.972;6.482;2022-11-20T08:28:33;18.92;;;10.52;;
57217;SDS011;43078;52.972;6.482;2022-11-20T08:30:59;20.40;;;10.32;;
57217;SDS011;43078;52.972;6.482;2022-11-20T08:33:25;16.23;;;9.43;;
57217;SDS011;43078;52.972;6.482;2022-11-20T08:35:52;17.83;;;9.75;;
57217;SDS011;43078;52.972;6.482;2022-11-20T08:38:17;18.42;;;10.05;;
57217;SDS011;43078;52.972;6.482;2022-11-20T08:40:43;15.95;;;10.07;;
57217;SDS011;43078;52.972;6.482;2022-11-20T08:43:31;15.00;;;10.10;;
57217;SDS011;43078;52.972;6.482;2022-11-20T08:45:57;15.20;;;9.68;;
57217;SDS011;43078;52.972;6.482;2022-11-20T08:48:23;16.20;;;9.45;;
57217;SDS011;43078;52.972;6.482;2022-11-20T08:50:48;15.38;;;9.98;;
57217;SDS011;43078;52.972;6.482;2022-11-20T08:53:14;16.52;;;9.43;;
57217;SDS011;43078;52.972;6.482;2022-11-20T08:55:39;15.50;;;9.45;;
57217;SDS011;43078;52.972;6.482;2022-11-20T08:58:05;15.73;;;9.48;;
57217;SDS011;43078;52.972;6.482;2022-11-20T09:00:32;15.27;;;9.77;;
57217;SDS011;43078;52.972;6.482;2022-11-20T09:02:59;14.95;;;9.43;;
57217;SDS011;43078;52.972;6.482;2022-11-20T09:05:25;15.25;;;8.98;;
57217;SDS011;43078;52.972;6.482;2022-11-20T09:07:51;15.77;;;9.15;;
57217;SDS011;43078;52.972;6.482;2022-11-20T09:10:20;14.63;;;8.88;;
57217;SDS011;43078;52.972;6.482;2022-11-20T09:12:48;15.43;;;9.38;;
57217;SDS011;43078;52.972;6.482;2022-11-20T09:15:14;14.93;;;8.80;;
57217;SDS011;43078;52.972;6.482;2022-11-20T09:17:40;13.50;;;9.20;;
57217;SDS011;43078;52.972;6.482;2022-11-20T09:20:05;15.75;;;8.75;;
57217;SDS011;43078;52.972;6.482;2022-11-20T09:22:31;12.10;;;7.90;;
57217;SDS011;43078;52.972;6.482;2022-11-20T09:24:57;13.00;;;8.57;;
57217;SDS011;43078;52.972;6.482;2022-11-20T09:27:23;13.15;;;8.73;;
57217;SDS011;43078;52.972;6.482;2022-11-20T09:29:48;13.45;;;8.98;;
57217;SDS011;43078;52.972;6.482;2022-11-20T09:32:14;13.88;;;8.75;;
57217;SDS011;43078;52.972;6.482;2022-11-20T09:34:40;15.20;;;9.00;;
57217;SDS011;43078;52.972;6.482;2022-11-20T09:37:05;14.30;;;9.07;;
57217;SDS011;43078;52.972;6.482;2022-11-20T09:39:31;16.55;;;9.43;;
57217;SDS011;43078;52.972;6.482;2022-11-20T09:48:18;12.52;;;8.55;;
57217;SDS011;43078;52.972;6.482;2022-11-20T09:56:18;11.70;;;8.13;;
57217;SDS011;43078;52.972;6.482;2022-11-20T09:58:45;13.68;;;8.18;;
57217;SDS011;43078;52.972;6.482;2022-11-20T10:01:15;12.60;;;8.55;;
57217;SDS011;43078;52.972;6.482;2022-11-20T10:06:32;11.15;;;7.57;;
57217;SDS011;43078;52.972;6.482;2022-11-20T10:09:32;11.70;;;8.25;;
57217;SDS011;43078;52.972;6.482;2022-11-20T10:20:37;13.38;;;8.57;;
57217;SDS011;43078;52.972;6.482;2022-11-20T10:23:29;13.13;;;8.00;;
57217;SDS011;43078;52.972;6.482;2022-11-20T10:26:03;12.15;;;8.00;;
57217;SDS011;43078;52.972;6.482;2022-11-20T10:31:36;11.95;;;7.88;;
57217;SDS011;43078;52.972;6.482;2022-11-20T10:34:05;12.00;;;7.78;;
57217;SDS011;43078;52.972;6.482;2022-11-20T10:36:47;10.95;;;7.70;;
57217;SDS011;43078;52.972;6.482;2022-11-20T10:39:30;12.30;;;8.07;;
57217;SDS011;43078;52.972;6.482;2022-11-20T10:41:59;11.82;;;7.45;;
57217;SDS011;43078;52.972;6.482;2022-11-20T10:44:29;10.27;;;7.70;;
57217;SDS011;43078;52.972;6.482;2022-11-20T10:47:14;10.98;;;7.90;;
57217;SDS011;43078;52.972;6.482;2022-11-20T10:49:42;10.68;;;7.13;;
57217;SDS011;43078;52.972;6.482;2022-11-20T10:52:13;11.27;;;7.80;;
57217;SDS011;43078;52.972;6.482;2022-11-20T11:01:15;11.17;;;7.73;;
57217;SDS011;43078;52.972;6.482;2022-11-20T11:03:43;11.43;;;7.18;;
57217;SDS011;43078;52.972;6.482;2022-11-20T11:09:12;11.75;;;7.90;;
57217;SDS011;43078;52.972;6.482;2022-11-20T11:11:42;10.65;;;7.50;;
57217;SDS011;43078;52.972;6.482;2022-11-20T11:14:08;10.65;;;7.15;;
57217;SDS011;43078;52.972;6.482;2022-11-20T11:16:51;10.85;;;7.60;;
57217;SDS011;43078;52.972;6.482;2022-11-20T11:19:21;11.35;;;7.50;;
57217;SDS011;43078;52.972;6.482;2022-11-20T11:21:49;10.27;;;6.88;;
57217;SDS011;43078;52.972;6.482;2022-11-20T11:24:24;10.18;;;6.43;;
57217;SDS011;43078;52.972;6.482;2022-11-20T11:27:01;9.23;;;6.22;;
57217;SDS011;43078;52.972;6.482;2022-11-20T11:29:29;9.40;;;6.20;;
57217;SDS011;43078;52.972;6.482;2022-11-20T11:34:36;9.73;;;6.28;;
57217;SDS011;43078;52.972;6.482;2022-11-20T11:37:02;10.25;;;6.80;;
57217;SDS011;43078;52.972;6.482;2022-11-20T11:39:29;9.80;;;6.82;;
57217;SDS011;43078;52.972;6.482;2022-11-20T11:41:57;10.75;;;6.53;;
57217;SDS011;43078;52.972;6.482;2022-11-20T11:44:27;9.35;;;6.75;;
57217;SDS011;43078;52.972;6.482;2022-11-20T11:47:22;11.35;;;6.80;;
57217;SDS011;43078;52.972;6.482;2022-11-20T12:00:50;9.45;;;6.40;;
57217;SDS011;43078;52.972;6.482;2022-11-20T12:03:34;10.40;;;6.82;;
57217;SDS011;43078;52.972;6.482;2022-11-20T12:06:06;10.50;;;6.53;;
57217;SDS011;43078;52.972;6.482;2022-11-20T12:08:44;8.77;;;6.13;;
57217;SDS011;43078;52.972;6.482;2022-11-20T12:16:23;9.40;;;6.40;;
57217;SDS011;43078;52.972;6.482;2022-11-20T12:18:50;9.48;;;6.13;;
57217;SDS011;43078;52.972;6.482;2022-11-20T12:24:06;9.25;;;5.75;;
57217;SDS011;43078;52.972;6.482;2022-11-20T12:34:47;8.93;;;5.93;;
57217;SDS011;43078;52.972;6.482;2022-11-20T12:43:06;8.30;;;5.55;;
57217;SDS011;43078;52.972;6.482;2022-11-20T12:57:47;9.18;;;5.85;;
57217;SDS011;43078;52.972;6.482;2022-11-20T13:00:22;8.73;;;5.82;;
57217;SDS011;43078;52.972;6.482;2022-11-20T13:07:50;9.98;;;7.07;;
57217;SDS011;43078;52.972;6.482;2022-11-20T13:10:20;10.75;;;7.00;;
57217;SDS011;43078;52.972;6.482;2022-11-20T13:13:04;9.10;;;5.90;;
57217;SDS011;43078;52.972;6.482;2022-11-20T13:18:33;10.15;;;7.43;;
57217;SDS011;43078;52.972;6.482;2022-11-20T13:21:14;13.32;;;8.00;;
57217;SDS011;43078;52.972;6.482;2022-11-20T13:23:45;9.60;;;6.30;;
57217;SDS011;43078;52.972;6.482;2022-11-20T13:26:29;10.02;;;6.20;;
57217;SDS011;43078;52.972;6.482;2022-11-20T13:31:47;10.23;;;6.03;;
57217;SDS011;43078;52.972;6.482;2022-11-20T13:34:14;10.85;;;6.53;;
57217;SDS011;43078;52.972;6.482;2022-11-20T13:36:56;9.40;;;6.32;;
57217;SDS011;43078;52.972;6.482;2022-11-20T13:39:32;9.07;;;5.90;;
57217;SDS011;43078;52.972;6.482;2022-11-20T13:42:00;8.82;;;5.57;;
57217;SDS011;43078;52.972;6.482;2022-11-20T13:44:50;8.63;;;6.07;;
57217;SDS011;43078;52.972;6.482;2022-11-20T13:49:47;10.05;;;6.93;;
57217;SDS011;43078;52.972;6.482;2022-11-20T13:58:34;9.80;;;6.40;;
57217;SDS011;43078;52.972;6.482;2022-11-20T14:01:29;8.68;;;5.70;;
57217;SDS011;43078;52.972;6.482;2022-11-20T14:04:08;9.77;;;6.72;;
57217;SDS011;43078;52.972;6.482;2022-11-20T14:06:44;10.50;;;6.95;;
57217;SDS011;43078;52.972;6.482;2022-11-20T14:12:15;8.90;;;6.57;;
57217;SDS011;43078;52.972;6.482;2022-11-20T14:14:51;9.73;;;6.60;;
57217;SDS011;43078;52.972;6.482;2022-11-20T14:17:19;9.32;;;6.70;;
57217;SDS011;43078;52.972;6.482;2022-11-20T14:19:45;10.50;;;6.80;;
57217;SDS011;43078;52.972;6.482;2022-11-20T14:24:47;11.23;;;7.53;;
57217;SDS011;43078;52.972;6.482;2022-11-20T14:27:32;9.85;;;6.38;;
57217;SDS011;43078;52.972;6.482;2022-11-20T14:30:02;9.68;;;6.97;;
57217;SDS011;43078;52.972;6.482;2022-11-20T14:32:29;9.18;;;6.10;;
57217;SDS011;43078;52.972;6.482;2022-11-20T14:34:56;9.90;;;6.63;;
57217;SDS011;43078;52.972;6.482;2022-11-20T14:37:27;8.80;;;6.50;;
57217;SDS011;43078;52.972;6.482;2022-11-20T14:39:56;9.93;;;7.20;;
57217;SDS011;43078;52.972;6.482;2022-11-20T14:42:27;10.88;;;7.05;;
57217;SDS011;43078;52.972;6.482;2022-11-20T14:44:58;10.85;;;7.72;;
57217;SDS011;43078;52.972;6.482;2022-11-20T14:47:26;9.57;;;6.95;;
57217;SDS011;43078;52.972;6.482;2022-11-20T14:49:54;11.95;;;7.25;;
57217;SDS011;43078;52.972;6.482;2022-11-20T14:52:22;10.43;;;7.40;;
57217;SDS011;43078;52.972;6.482;2022-11-20T14:57:26;10.77;;;7.13;;
57217;SDS011;43078;52.972;6.482;2022-11-20T15:02:46;11.98;;;7.95;;
57217;SDS011;43078;52.972;6.482;2022-11-20T15:05:14;9.40;;;6.82;;
57217;SDS011;43078;52.972;6.482;2022-11-20T15:07:42;11.13;;;7.53;;
57217;SDS011;43078;52.972;6.482;2022-11-20T15:12:51;11.05;;;7.97;;
57217;SDS011;43078;52.972;6.482;2022-11-20T15:22:12;10.85;;;7.90;;
57217;SDS011;43078;52.972;6.482;2022-11-20T15:24:38;11.52;;;7.97;;
57217;SDS011;43078;52.972;6.482;2022-11-20T15:27:04;12.38;;;7.90;;
57217;SDS011;43078;52.972;6.482;2022-11-20T15:29:31;11.57;;;7.97;;
57217;SDS011;43078;52.972;6.482;2022-11-20T15:31:57;14.50;;;9.00;;
57217;SDS011;43078;52.972;6.482;2022-11-20T15:34:23;11.57;;;8.35;;
57217;SDS011;43078;52.972;6.482;2022-11-20T15:36:48;11.35;;;8.13;;
57217;SDS011;43078;52.972;6.482;2022-11-20T15:39:14;11.98;;;8.60;;
57217;SDS011;43078;52.972;6.482;2022-11-20T15:41:40;12.55;;;9.00;;
57217;SDS011;43078;52.972;6.482;2022-11-20T15:44:06;12.15;;;8.90;;
57217;SDS011;43078;52.972;6.482;2022-11-20T15:46:32;12.13;;;9.00;;
57217;SDS011;43078;52.972;6.482;2022-11-20T15:49:05;13.15;;;9.80;;
57217;SDS011;43078;52.972;6.482;2022-11-20T15:51:37;12.73;;;9.70;;
57217;SDS011;43078;52.972;6.482;2022-11-20T15:54:14;11.57;;;8.90;;
57217;SDS011;43078;52.972;6.482;2022-11-20T15:56:43;13.25;;;9.50;;
57217;SDS011;43078;52.972;6.482;2022-11-20T15:59:08;13.25;;;9.13;;
57217;SDS011;43078;52.972;6.482;2022-11-20T16:01:34;13.20;;;9.77;;
57217;SDS011;43078;52.972;6.482;2022-11-20T16:04:00;13.50;;;9.82;;
57217;SDS011;43078;52.972;6.482;2022-11-20T16:06:26;12.65;;;9.90;;
57217;SDS011;43078;52.972;6.482;2022-11-20T16:08:52;12.65;;;9.57;;
57217;SDS011;43078;52.972;6.482;2022-11-20T16:11:20;14.00;;;10.27;;
57217;SDS011;43078;52.972;6.482;2022-11-20T16:13:46;13.63;;;9.75;;
57217;SDS011;43078;52.972;6.482;2022-11-20T16:16:32;13.55;;;10.05;;
57217;SDS011;43078;52.972;6.482;2022-11-20T16:18:59;15.05;;;10.25;;
57217;SDS011;43078;52.972;6.482;2022-11-20T16:21:25;13.55;;;9.90;;
57217;SDS011;43078;52.972;6.482;2022-11-20T16:24:02;14.65;;;10.35;;
57217;SDS011;43078;52.972;6.482;2022-11-20T16:26:29;13.68;;;9.88;;
57217;SDS011;43078;52.972;6.482;2022-11-20T16:28:55;13.23;;;9.85;;
57217;SDS011;43078;52.972;6.482;2022-11-20T16:31:21;13.52;;;9.38;;
57217;SDS011;43078;52.972;6.482;2022-11-20T16:33:50;14.00;;;10.27;;
57217;SDS011;43078;52.972;6.482;2022-11-20T16:36:17;13.85;;;10.48;;
57217;SDS011;43078;52.972;6.482;2022-11-20T16:38:43;15.23;;;10.30;;
57217;SDS011;43078;52.972;6.482;2022-11-20T16:41:09;13.27;;;10.18;;
57217;SDS011;43078;52.972;6.482;2022-11-20T16:43:48;13.70;;;9.77;;
57217;SDS011;43078;52.972;6.482;2022-11-20T16:46:16;14.18;;;10.07;;
57217;SDS011;43078;52.972;6.482;2022-11-20T16:48:42;13.52;;;10.23;;
57217;SDS011;43078;52.972;6.482;2022-11-20T16:51:09;18.30;;;13.68;;
57217;SDS011;43078;52.972;6.482;2022-11-20T16:53:36;20.50;;;14.98;;
57217;SDS011;43078;52.972;6.482;2022-11-20T16:56:12;14.52;;;11.20;;
57217;SDS011;43078;52.972;6.482;2022-11-20T16:58:45;15.45;;;11.65;;
57217;SDS011;43078;52.972;6.482;2022-11-20T17:01:13;13.98;;;10.70;;